sensor_id;sensor_type;location;lat;lon;timestamp;P1;durP1;ratioP1;P2;durP2;ratioP2
14076;SDS011;7114;51.100;13.998;2022-10-24T00:02:02;18.70;;;10.43;;
14076;SDS011;7114;51.100;13.998;2022-10-24T00:04:28;22.45;;;11.48;;
14076;SDS011;7114;51.100;13.998;2022-10-24T00:06:55;20.88;;;10.95;;
14076;SDS011;7114;51.100;13.998;2022-10-24T00:09:21;21.90;;;10.98;;
14076;SDS011;7114;51.100;13.998;2022-10-24T00:11:48;22.43;;;10.57;;
14076;SDS011;7114;51.100;13.998;2022-10-24T00:14:14;18.73;;;10.25;;
14076;SDS011;7114;51.100;13.998;2022-10-24T00:16:42;21.05;;;10.45;;
14076;SDS011;7114;51.100;13.998;2022-10-24T00:19:08;19.52;;;10.43;;
14076;SDS011;7114;51.100;13.998;2022-10-24T00:21:35;20.55;;;10.80;;
14076;SDS011;7114;51.100;13.998;2022-10-24T00:24:01;21.53;;;10.77;;
14076;SDS011;7114;51.100;13.998;2022-10-24T00:26:27;19.48;;;9.93;;
14076;SDS011;7114;51.100;13.998;2022-10-24T00:28:55;21.48;;;11.10;;
14076;SDS011;7114;51.100;13.998;2022-10-24T00:31:22;23.42;;;10.90;;
14076;SDS011;7114;51.100;13.998;2022-10-24T00:33:50;21.42;;;10.98;;
14076;SDS011;7114;51.100;13.998;2022-10-24T00:36:17;22.47;;;10.53;;
14076;SDS011;7114;51.100;13.998;2022-10-24T00:38:45;22.25;;;10.95;;
14076;SDS011;7114;51.100;13.998;2022-10-24T00:41:13;22.98;;;11.02;;
14076;SDS011;7114;51.100;13.998;2022-10-24T00:43:41;21.40;;;10.32;;
14076;SDS011;7114;51.100;13.998;2022-10-24T00:46:07;21.58;;;10.00;;
14076;SDS011;7114;51.100;13.998;2022-10-24T00:48:35;21.50;;;10.33;;
14076;SDS011;7114;51.100;13.998;2022-10-24T00:51:05;22.52;;;10.23;;
14076;SDS011;7114;51.100;13.998;2022-10-24T00:53:34;22.67;;;10.40;;
14076;SDS011;7114;51.100;13.998;2022-10-24T00:56:05;21.73;;;11.10;;
14076;SDS011;7114;51.100;13.998;2022-10-24T00:58:33;20.48;;;10.68;;
14076;SDS011;7114;51.100;13.998;2022-10-24T01:01:02;22.07;;;10.57;;
14076;SDS011;7114;51.100;13.998;2022-10-24T01:03:30;22.73;;;10.60;;
14076;SDS011;7114;51.100;13.998;2022-10-24T01:08:59;21.88;;;10.85;;
14076;SDS011;7114;51.100;13.998;2022-10-24T01:11:35;21.08;;;11.10;;
14076;SDS011;7114;51.100;13.998;2022-10-24T01:14:09;25.47;;;11.83;;
14076;SDS011;7114;51.100;13.998;2022-10-24T01:16:41;20.98;;;11.50;;
14076;SDS011;7114;51.100;13.998;2022-10-24T01:19:14;20.95;;;11.07;;
14076;SDS011;7114;51.100;13.998;2022-10-24T01:21:54;22.17;;;11.27;;
14076;SDS011;7114;51.100;13.998;2022-10-24T01:27:23;19.93;;;11.27;;
14076;SDS011;7114;51.100;13.998;2022-10-24T01:30:01;21.75;;;11.27;;
14076;SDS011;7114;51.100;13.998;2022-10-24T01:32:33;21.65;;;11.63;;
14076;SDS011;7114;51.100;13.998;2022-10-24T01:35:19;23.25;;;11.32;;
14076;SDS011;7114;51.100;13.998;2022-10-24T01:37:50;24.02;;;11.88;;
14076;SDS011;7114;51.100;13.998;2022-10-24T01:40:19;22.70;;;11.57;;
14076;SDS011;7114;51.100;13.998;2022-10-24T01:42:48;24.65;;;12.00;;
14076;SDS011;7114;51.100;13.998;2022-10-24T01:45:17;22.35;;;12.27;;
14076;SDS011;7114;51.100;13.998;2022-10-24T01:47:47;25.55;;;12.25;;
14076;SDS011;7114;51.100;13.998;2022-10-24T01:50:16;25.85;;;12.85;;
14076;SDS011;7114;51.100;13.998;2022-10-24T01:52:45;22.90;;;12.20;;
14076;SDS011;7114;51.100;13.998;2022-10-24T01:55:12;25.73;;;13.05;;
14076;SDS011;7114;51.100;13.998;2022-10-24T01:57:39;22.50;;;11.50;;
14076;SDS011;7114;51.100;13.998;2022-10-24T02:00:07;25.25;;;11.95;;
14076;SDS011;7114;51.100;13.998;2022-10-24T02:02:40;22.77;;;12.02;;
14076;SDS011;7114;51.100;13.998;2022-10-24T02:05:09;23.53;;;11.13;;
14076;SDS011;7114;51.100;13.998;2022-10-24T02:07:38;24.80;;;11.73;;
14076;SDS011;7114;51.100;13.998;2022-10-24T02:10:09;23.20;;;11.73;;
14076;SDS011;7114;51.100;13.998;2022-10-24T02:12:38;25.60;;;12.45;;
14076;SDS011;7114;51.100;13.998;2022-10-24T02:15:09;23.45;;;12.32;;
14076;SDS011;7114;51.100;13.998;2022-10-24T02:17:40;22.37;;;11.93;;
14076;SDS011;7114;51.100;13.998;2022-10-24T02:20:07;25.20;;;12.07;;
14076;SDS011;7114;51.100;13.998;2022-10-24T02:22:38;22.90;;;11.98;;
14076;SDS011;7114;51.100;13.998;2022-10-24T02:25:10;22.95;;;11.80;;
14076;SDS011;7114;51.100;13.998;2022-10-24T02:27:39;26.65;;;12.50;;
14076;SDS011;7114;51.100;13.998;2022-10-24T02:30:08;25.83;;;12.23;;
14076;SDS011;7114;51.100;13.998;2022-10-24T02:32:37;21.77;;;11.40;;
14076;SDS011;7114;51.100;13.998;2022-10-24T02:35:09;24.55;;;12.00;;
14076;SDS011;7114;51.100;13.998;2022-10-24T02:37:38;25.10;;;12.10;;
14076;SDS011;7114;51.100;13.998;2022-10-24T02:40:11;31.30;;;12.77;;
14076;SDS011;7114;51.100;13.998;2022-10-24T02:42:39;26.70;;;12.00;;
14076;SDS011;7114;51.100;13.998;2022-10-24T02:45:10;25.95;;;11.85;;
14076;SDS011;7114;51.100;13.998;2022-10-24T02:47:41;25.95;;;12.15;;
14076;SDS011;7114;51.100;13.998;2022-10-24T02:50:10;28.15;;;12.52;;
14076;SDS011;7114;51.100;13.998;2022-10-24T02:52:37;26.27;;;12.15;;
14076;SDS011;7114;51.100;13.998;2022-10-24T02:55:07;26.93;;;12.30;;
14076;SDS011;7114;51.100;13.998;2022-10-24T02:57:35;30.90;;;12.15;;
14076;SDS011;7114;51.100;13.998;2022-10-24T03:00:02;28.60;;;13.23;;
14076;SDS011;7114;51.100;13.998;2022-10-24T03:02:28;28.25;;;13.00;;
14076;SDS011;7114;51.100;13.998;2022-10-24T03:04:56;30.23;;;13.73;;
14076;SDS011;7114;51.100;13.998;2022-10-24T03:07:23;28.87;;;12.80;;
14076;SDS011;7114;51.100;13.998;2022-10-24T03:09:49;29.23;;;13.25;;
14076;SDS011;7114;51.100;13.998;2022-10-24T03:12:15;28.77;;;13.85;;
14076;SDS011;7114;51.100;13.998;2022-10-24T03:14:42;31.40;;;14.30;;
14076;SDS011;7114;51.100;13.998;2022-10-24T03:17:09;32.70;;;13.95;;
14076;SDS011;7114;51.100;13.998;2022-10-24T03:19:35;28.27;;;13.20;;
14076;SDS011;7114;51.100;13.998;2022-10-24T03:22:03;31.58;;;13.85;;
14076;SDS011;7114;51.100;13.998;2022-10-24T03:24:30;32.35;;;13.95;;
14076;SDS011;7114;51.100;13.998;2022-10-24T03:26:56;32.80;;;14.43;;
14076;SDS011;7114;51.100;13.998;2022-10-24T03:29:23;32.08;;;13.95;;
14076;SDS011;7114;51.100;13.998;2022-10-24T03:31:50;29.90;;;14.00;;
14076;SDS011;7114;51.100;13.998;2022-10-24T03:34:16;34.58;;;14.65;;
14076;SDS011;7114;51.100;13.998;2022-10-24T03:36:46;31.38;;;14.90;;
14076;SDS011;7114;51.100;13.998;2022-10-24T03:39:14;31.35;;;14.25;;
14076;SDS011;7114;51.100;13.998;2022-10-24T03:41:40;31.20;;;14.63;;
14076;SDS011;7114;51.100;13.998;2022-10-24T03:44:07;33.60;;;14.70;;
14076;SDS011;7114;51.100;13.998;2022-10-24T03:46:33;34.97;;;15.60;;
14076;SDS011;7114;51.100;13.998;2022-10-24T03:49:00;31.65;;;14.15;;
14076;SDS011;7114;51.100;13.998;2022-10-24T03:51:27;32.17;;;14.77;;
14076;SDS011;7114;51.100;13.998;2022-10-24T03:53:53;29.75;;;14.00;;
14076;SDS011;7114;51.100;13.998;2022-10-24T03:56:21;30.60;;;14.50;;
14076;SDS011;7114;51.100;13.998;2022-10-24T03:58:48;30.77;;;13.43;;
14076;SDS011;7114;51.100;13.998;2022-10-24T04:01:15;28.83;;;13.52;;
14076;SDS011;7114;51.100;13.998;2022-10-24T04:03:43;30.17;;;13.40;;
14076;SDS011;7114;51.100;13.998;2022-10-24T04:06:10;28.35;;;12.00;;
14076;SDS011;7114;51.100;13.998;2022-10-24T04:08:36;30.80;;;13.30;;
14076;SDS011;7114;51.100;13.998;2022-10-24T04:11:04;28.92;;;12.95;;
14076;SDS011;7114;51.100;13.998;2022-10-24T04:13:33;29.35;;;12.35;;
14076;SDS011;7114;51.100;13.998;2022-10-24T04:15:59;27.33;;;11.65;;
14076;SDS011;7114;51.100;13.998;2022-10-24T04:18:26;28.40;;;11.75;;
14076;SDS011;7114;51.100;13.998;2022-10-24T04:20:52;27.03;;;11.67;;
14076;SDS011;7114;51.100;13.998;2022-10-24T04:23:19;30.60;;;11.90;;
14076;SDS011;7114;51.100;13.998;2022-10-24T04:25:45;29.40;;;11.93;;
14076;SDS011;7114;51.100;13.998;2022-10-24T04:28:11;27.00;;;11.48;;
14076;SDS011;7114;51.100;13.998;2022-10-24T04:30:39;26.08;;;11.05;;
14076;SDS011;7114;51.100;13.998;2022-10-24T04:33:06;28.03;;;10.93;;
14076;SDS011;7114;51.100;13.998;2022-10-24T04:35:32;27.92;;;11.68;;
14076;SDS011;7114;51.100;13.998;2022-10-24T04:37:59;29.63;;;11.23;;
14076;SDS011;7114;51.100;13.998;2022-10-24T04:40:25;28.92;;;11.23;;
14076;SDS011;7114;51.100;13.998;2022-10-24T04:42:52;28.15;;;11.68;;
14076;SDS011;7114;51.100;13.998;2022-10-24T04:45:18;27.30;;;10.70;;
14076;SDS011;7114;51.100;13.998;2022-10-24T04:47:46;24.88;;;10.73;;
14076;SDS011;7114;51.100;13.998;2022-10-24T04:50:13;25.92;;;10.82;;
14076;SDS011;7114;51.100;13.998;2022-10-24T04:52:40;26.80;;;10.85;;
14076;SDS011;7114;51.100;13.998;2022-10-24T04:55:06;28.30;;;10.27;;
14076;SDS011;7114;51.100;13.998;2022-10-24T04:57:33;28.43;;;10.90;;
14076;SDS011;7114;51.100;13.998;2022-10-24T04:59:59;27.92;;;11.10;;
14076;SDS011;7114;51.100;13.998;2022-10-24T05:02:26;28.65;;;11.45;;
14076;SDS011;7114;51.100;13.998;2022-10-24T05:04:54;26.95;;;10.80;;
14076;SDS011;7114;51.100;13.998;2022-10-24T05:07:20;27.35;;;11.00;;
14076;SDS011;7114;51.100;13.998;2022-10-24T05:09:47;27.07;;;9.97;;
14076;SDS011;7114;51.100;13.998;2022-10-24T05:12:13;26.20;;;10.18;;
14076;SDS011;7114;51.100;13.998;2022-10-24T05:14:40;25.63;;;10.18;;
14076;SDS011;7114;51.100;13.998;2022-10-24T05:17:06;23.50;;;9.68;;
14076;SDS011;7114;51.100;13.998;2022-10-24T05:19:32;25.77;;;10.18;;
14076;SDS011;7114;51.100;13.998;2022-10-24T05:22:01;27.40;;;9.70;;
14076;SDS011;7114;51.100;13.998;2022-10-24T05:24:28;26.85;;;10.40;;
14076;SDS011;7114;51.100;13.998;2022-10-24T05:26:55;27.10;;;10.27;;
14076;SDS011;7114;51.100;13.998;2022-10-24T05:29:21;25.63;;;9.95;;
14076;SDS011;7114;51.100;13.998;2022-10-24T05:31:48;27.05;;;10.25;;
14076;SDS011;7114;51.100;13.998;2022-10-24T05:34:14;29.63;;;10.10;;
14076;SDS011;7114;51.100;13.998;2022-10-24T05:36:41;27.35;;;10.15;;
14076;SDS011;7114;51.100;13.998;2022-10-24T05:39:08;25.42;;;9.38;;
14076;SDS011;7114;51.100;13.998;2022-10-24T05:41:35;26.15;;;9.25;;
14076;SDS011;7114;51.100;13.998;2022-10-24T05:44:01;25.65;;;9.85;;
14076;SDS011;7114;51.100;13.998;2022-10-24T05:46:28;28.47;;;9.90;;
14076;SDS011;7114;51.100;13.998;2022-10-24T05:54:04;25.20;;;9.27;;
14076;SDS011;7114;51.100;13.998;2022-10-24T05:56:32;27.20;;;9.98;;
14076;SDS011;7114;51.100;13.998;2022-10-24T05:58:59;24.83;;;9.40;;
14076;SDS011;7114;51.100;13.998;2022-10-24T06:01:25;23.58;;;9.30;;
14076;SDS011;7114;51.100;13.998;2022-10-24T06:03:54;24.08;;;9.75;;
14076;SDS011;7114;51.100;13.998;2022-10-24T06:06:21;23.95;;;9.20;;
14076;SDS011;7114;51.100;13.998;2022-10-24T06:08:48;23.70;;;9.45;;
14076;SDS011;7114;51.100;13.998;2022-10-24T06:11:16;23.43;;;9.77;;
14076;SDS011;7114;51.100;13.998;2022-10-24T06:13:44;25.67;;;9.75;;
14076;SDS011;7114;51.100;13.998;2022-10-24T06:16:11;22.60;;;9.60;;
14076;SDS011;7114;51.100;13.998;2022-10-24T06:18:38;24.17;;;9.63;;
14076;SDS011;7114;51.100;13.998;2022-10-24T06:21:06;24.65;;;9.82;;
14076;SDS011;7114;51.100;13.998;2022-10-24T06:23:33;27.90;;;10.60;;
14076;SDS011;7114;51.100;13.998;2022-10-24T06:26:00;24.40;;;10.13;;
14076;SDS011;7114;51.100;13.998;2022-10-24T06:28:26;23.45;;;9.65;;
14076;SDS011;7114;51.100;13.998;2022-10-24T06:30:54;23.48;;;9.35;;
14076;SDS011;7114;51.100;13.998;2022-10-24T06:33:21;24.02;;;10.18;;
14076;SDS011;7114;51.100;13.998;2022-10-24T06:35:50;21.53;;;9.80;;
14076;SDS011;7114;51.100;13.998;2022-10-24T06:38:17;22.40;;;9.85;;
14076;SDS011;7114;51.100;13.998;2022-10-24T06:40:46;22.27;;;8.98;;
14076;SDS011;7114;51.100;13.998;2022-10-24T06:43:13;20.73;;;8.55;;
14076;SDS011;7114;51.100;13.998;2022-10-24T06:45:40;19.60;;;8.18;;
14076;SDS011;7114;51.100;13.998;2022-10-24T06:48:10;20.70;;;8.10;;
14076;SDS011;7114;51.100;13.998;2022-10-24T06:50:37;18.88;;;8.45;;
14076;SDS011;7114;51.100;13.998;2022-10-24T06:53:04;19.90;;;7.75;;
14076;SDS011;7114;51.100;13.998;2022-10-24T06:55:31;18.65;;;7.30;;
14076;SDS011;7114;51.100;13.998;2022-10-24T06:57:57;19.83;;;7.22;;
14076;SDS011;7114;51.100;13.998;2022-10-24T07:00:24;17.80;;;7.10;;
14076;SDS011;7114;51.100;13.998;2022-10-24T07:02:51;17.02;;;7.07;;
14076;SDS011;7114;51.100;13.998;2022-10-24T07:05:19;15.63;;;6.55;;
14076;SDS011;7114;51.100;13.998;2022-10-24T07:07:45;14.05;;;6.35;;
14076;SDS011;7114;51.100;13.998;2022-10-24T07:10:12;19.40;;;7.05;;
14076;SDS011;7114;51.100;13.998;2022-10-24T07:12:39;16.40;;;6.70;;
14076;SDS011;7114;51.100;13.998;2022-10-24T07:15:07;15.23;;;6.82;;
14076;SDS011;7114;51.100;13.998;2022-10-24T07:17:37;13.57;;;6.57;;
14076;SDS011;7114;51.100;13.998;2022-10-24T07:20:07;14.77;;;6.22;;
14076;SDS011;7114;51.100;13.998;2022-10-24T07:22:36;14.63;;;5.82;;
14076;SDS011;7114;51.100;13.998;2022-10-24T07:25:03;16.17;;;6.70;;
14076;SDS011;7114;51.100;13.998;2022-10-24T07:27:31;14.65;;;6.68;;
14076;SDS011;7114;51.100;13.998;2022-10-24T07:29:58;15.43;;;6.50;;
14076;SDS011;7114;51.100;13.998;2022-10-24T07:32:24;13.90;;;6.38;;
14076;SDS011;7114;51.100;13.998;2022-10-24T07:34:55;14.40;;;6.03;;
14076;SDS011;7114;51.100;13.998;2022-10-24T07:37:21;15.10;;;5.40;;
14076;SDS011;7114;51.100;13.998;2022-10-24T07:39:49;13.55;;;5.88;;
14076;SDS011;7114;51.100;13.998;2022-10-24T07:42:25;12.45;;;5.32;;
14076;SDS011;7114;51.100;13.998;2022-10-24T07:44:51;13.70;;;5.55;;
14076;SDS011;7114;51.100;13.998;2022-10-24T07:47:18;12.82;;;5.43;;
14076;SDS011;7114;51.100;13.998;2022-10-24T07:49:46;13.37;;;5.67;;
14076;SDS011;7114;51.100;13.998;2022-10-24T07:52:16;12.60;;;5.28;;
14076;SDS011;7114;51.100;13.998;2022-10-24T07:54:43;15.07;;;5.40;;
14076;SDS011;7114;51.100;13.998;2022-10-24T07:57:11;12.02;;;5.18;;
14076;SDS011;7114;51.100;13.998;2022-10-24T07:59:37;12.95;;;5.18;;
14076;SDS011;7114;51.100;13.998;2022-10-24T08:02:03;13.27;;;4.73;;
14076;SDS011;7114;51.100;13.998;2022-10-24T08:04:30;11.30;;;5.10;;
14076;SDS011;7114;51.100;13.998;2022-10-24T08:06:56;13.23;;;5.72;;
14076;SDS011;7114;51.100;13.998;2022-10-24T08:09:23;16.80;;;5.40;;
14076;SDS011;7114;51.100;13.998;2022-10-24T08:11:50;11.63;;;5.13;;
14076;SDS011;7114;51.100;13.998;2022-10-24T08:14:18;10.87;;;4.77;;
14076;SDS011;7114;51.100;13.998;2022-10-24T08:16:44;11.68;;;4.50;;
14076;SDS011;7114;51.100;13.998;2022-10-24T08:19:11;11.75;;;4.88;;
14076;SDS011;7114;51.100;13.998;2022-10-24T08:21:39;11.13;;;4.68;;
14076;SDS011;7114;51.100;13.998;2022-10-24T08:24:05;11.05;;;4.45;;
14076;SDS011;7114;51.100;13.998;2022-10-24T08:26:32;12.53;;;5.03;;
14076;SDS011;7114;51.100;13.998;2022-10-24T08:29:00;13.43;;;4.10;;
14076;SDS011;7114;51.100;13.998;2022-10-24T08:31:29;11.82;;;4.65;;
14076;SDS011;7114;51.100;13.998;2022-10-24T08:33:56;11.23;;;4.97;;
14076;SDS011;7114;51.100;13.998;2022-10-24T08:36:24;12.75;;;4.80;;
14076;SDS011;7114;51.100;13.998;2022-10-24T08:38:51;13.63;;;5.13;;
14076;SDS011;7114;51.100;13.998;2022-10-24T08:41:23;12.60;;;5.15;;
14076;SDS011;7114;51.100;13.998;2022-10-24T08:43:53;11.85;;;5.40;;
14076;SDS011;7114;51.100;13.998;2022-10-24T08:46:27;12.00;;;5.28;;
14076;SDS011;7114;51.100;13.998;2022-10-24T08:49:05;12.02;;;4.80;;
14076;SDS011;7114;51.100;13.998;2022-10-24T08:51:38;14.07;;;4.87;;
14076;SDS011;7114;51.100;13.998;2022-10-24T08:54:08;12.10;;;5.10;;
14076;SDS011;7114;51.100;13.998;2022-10-24T08:56:36;10.90;;;5.28;;
14076;SDS011;7114;51.100;13.998;2022-10-24T08:59:03;11.55;;;5.25;;
14076;SDS011;7114;51.100;13.998;2022-10-24T09:01:30;12.05;;;5.60;;
14076;SDS011;7114;51.100;13.998;2022-10-24T09:04:02;14.57;;;5.47;;
14076;SDS011;7114;51.100;13.998;2022-10-24T09:06:30;12.18;;;5.65;;
14076;SDS011;7114;51.100;13.998;2022-10-24T09:08:57;11.35;;;5.05;;
14076;SDS011;7114;51.100;13.998;2022-10-24T09:11:27;13.43;;;5.13;;
14076;SDS011;7114;51.100;13.998;2022-10-24T09:13:56;12.82;;;5.60;;
14076;SDS011;7114;51.100;13.998;2022-10-24T09:16:22;10.60;;;4.87;;
14076;SDS011;7114;51.100;13.998;2022-10-24T09:18:50;10.07;;;4.50;;
14076;SDS011;7114;51.100;13.998;2022-10-24T09:21:19;12.20;;;5.53;;
14076;SDS011;7114;51.100;13.998;2022-10-24T09:23:46;12.07;;;5.13;;
14076;SDS011;7114;51.100;13.998;2022-10-24T09:26:15;11.57;;;5.10;;
14076;SDS011;7114;51.100;13.998;2022-10-24T09:28:43;11.67;;;5.10;;
14076;SDS011;7114;51.100;13.998;2022-10-24T09:31:12;12.05;;;5.38;;
14076;SDS011;7114;51.100;13.998;2022-10-24T09:33:40;12.85;;;5.45;;
14076;SDS011;7114;51.100;13.998;2022-10-24T09:36:08;10.48;;;4.78;;
14076;SDS011;7114;51.100;13.998;2022-10-24T09:38:39;12.20;;;5.00;;
14076;SDS011;7114;51.100;13.998;2022-10-24T09:41:07;11.60;;;4.63;;
14076;SDS011;7114;51.100;13.998;2022-10-24T09:43:45;13.32;;;4.93;;
14076;SDS011;7114;51.100;13.998;2022-10-24T09:46:15;11.00;;;4.90;;
14076;SDS011;7114;51.100;13.998;2022-10-24T09:48:47;12.38;;;4.85;;
14076;SDS011;7114;51.100;13.998;2022-10-24T09:51:19;10.75;;;4.60;;
14076;SDS011;7114;51.100;13.998;2022-10-24T09:54:04;13.97;;;5.40;;
14076;SDS011;7114;51.100;13.998;2022-10-24T09:56:34;16.30;;;8.00;;
14076;SDS011;7114;51.100;13.998;2022-10-24T09:59:16;21.65;;;12.68;;
14076;SDS011;7114;51.100;13.998;2022-10-24T10:01:44;19.02;;;10.45;;
14076;SDS011;7114;51.100;13.998;2022-10-24T10:04:13;24.27;;;10.93;;
14076;SDS011;7114;51.100;13.998;2022-10-24T10:06:42;19.83;;;10.40;;
14076;SDS011;7114;51.100;13.998;2022-10-24T10:09:12;23.70;;;14.77;;
14076;SDS011;7114;51.100;13.998;2022-10-24T10:11:39;20.00;;;11.18;;
14076;SDS011;7114;51.100;13.998;2022-10-24T10:14:15;22.88;;;11.57;;
14076;SDS011;7114;51.100;13.998;2022-10-24T10:16:47;28.33;;;13.45;;
14076;SDS011;7114;51.100;13.998;2022-10-24T10:19:23;63.63;;;27.67;;
14076;SDS011;7114;51.100;13.998;2022-10-24T10:21:51;53.38;;;20.20;;
14076;SDS011;7114;51.100;13.998;2022-10-24T10:24:23;42.78;;;20.92;;
14076;SDS011;7114;51.100;13.998;2022-10-24T10:26:51;100.05;;;34.55;;
14076;SDS011;7114;51.100;13.998;2022-10-24T10:29:21;96.15;;;35.75;;
14076;SDS011;7114;51.100;13.998;2022-10-24T10:31:49;293.20;;;98.17;;
14076;SDS011;7114;51.100;13.998;2022-10-24T10:34:20;166.27;;;52.35;;
14076;SDS011;7114;51.100;13.998;2022-10-24T10:39:55;26.58;;;13.20;;
14076;SDS011;7114;51.100;13.998;2022-10-24T10:42:32;22.25;;;9.88;;
14076;SDS011;7114;51.100;13.998;2022-10-24T10:45:03;24.37;;;12.07;;
14076;SDS011;7114;51.100;13.998;2022-10-24T10:47:39;21.70;;;9.23;;
14076;SDS011;7114;51.100;13.998;2022-10-24T10:50:16;72.32;;;31.30;;
14076;SDS011;7114;51.100;13.998;2022-10-24T10:52:47;47.25;;;20.73;;
14076;SDS011;7114;51.100;13.998;2022-10-24T10:55:19;73.32;;;32.85;;
14076;SDS011;7114;51.100;13.998;2022-10-24T10:57:52;29.27;;;12.50;;
14076;SDS011;7114;51.100;13.998;2022-10-24T11:00:24;34.17;;;15.23;;
14076;SDS011;7114;51.100;13.998;2022-10-24T11:03:02;22.35;;;5.97;;
14076;SDS011;7114;51.100;13.998;2022-10-24T11:05:48;15.38;;;5.07;;
14076;SDS011;7114;51.100;13.998;2022-10-24T11:08:31;21.13;;;9.50;;
14076;SDS011;7114;51.100;13.998;2022-10-24T11:11:13;43.07;;;17.03;;
14076;SDS011;7114;51.100;13.998;2022-10-24T11:13:42;19.05;;;7.00;;
14076;SDS011;7114;51.100;13.998;2022-10-24T11:16:13;13.13;;;5.22;;
14076;SDS011;7114;51.100;13.998;2022-10-24T11:18:43;12.02;;;4.45;;
14076;SDS011;7114;51.100;13.998;2022-10-24T11:21:12;13.02;;;3.55;;
14076;SDS011;7114;51.100;13.998;2022-10-24T11:23:40;10.97;;;3.27;;
14076;SDS011;7114;51.100;13.998;2022-10-24T11:26:10;15.18;;;3.97;;
14076;SDS011;7114;51.100;13.998;2022-10-24T11:28:41;20.35;;;6.10;;
14076;SDS011;7114;51.100;13.998;2022-10-24T11:31:12;17.50;;;4.18;;
14076;SDS011;7114;51.100;13.998;2022-10-24T11:33:41;12.23;;;3.50;;
14076;SDS011;7114;51.100;13.998;2022-10-24T11:36:11;17.07;;;4.70;;
14076;SDS011;7114;51.100;13.998;2022-10-24T11:38:43;12.90;;;3.50;;
14076;SDS011;7114;51.100;13.998;2022-10-24T11:41:17;14.35;;;3.60;;
14076;SDS011;7114;51.100;13.998;2022-10-24T11:43:47;21.17;;;6.30;;
14076;SDS011;7114;51.100;13.998;2022-10-24T11:46:15;18.58;;;5.43;;
14076;SDS011;7114;51.100;13.998;2022-10-24T11:48:45;14.83;;;4.27;;
14076;SDS011;7114;51.100;13.998;2022-10-24T11:51:16;21.27;;;5.93;;
14076;SDS011;7114;51.100;13.998;2022-10-24T11:53:51;14.48;;;4.68;;
14076;SDS011;7114;51.100;13.998;2022-10-24T11:56:23;19.85;;;5.25;;
14076;SDS011;7114;51.100;13.998;2022-10-24T11:58:56;17.45;;;5.22;;
14076;SDS011;7114;51.100;13.998;2022-10-24T12:01:33;22.13;;;6.00;;
14076;SDS011;7114;51.100;13.998;2022-10-24T12:07:06;27.17;;;7.22;;
14076;SDS011;7114;51.100;13.998;2022-10-24T12:10:12;18.67;;;5.82;;
14076;SDS011;7114;51.100;13.998;2022-10-24T12:12:54;10.85;;;3.65;;
14076;SDS011;7114;51.100;13.998;2022-10-24T12:15:34;11.13;;;3.57;;
14076;SDS011;7114;51.100;13.998;2022-10-24T12:18:07;10.90;;;3.53;;
14076;SDS011;7114;51.100;13.998;2022-10-24T12:20:37;11.20;;;3.65;;
14076;SDS011;7114;51.100;13.998;2022-10-24T12:23:05;11.10;;;4.30;;
14076;SDS011;7114;51.100;13.998;2022-10-24T12:25:32;10.95;;;4.05;;
14076;SDS011;7114;51.100;13.998;2022-10-24T12:28:02;12.00;;;3.77;;
14076;SDS011;7114;51.100;13.998;2022-10-24T12:30:30;10.55;;;4.20;;
14076;SDS011;7114;51.100;13.998;2022-10-24T12:32:58;10.95;;;3.92;;
14076;SDS011;7114;51.100;13.998;2022-10-24T12:35:36;12.52;;;3.90;;
14076;SDS011;7114;51.100;13.998;2022-10-24T12:44:24;12.23;;;4.28;;
14076;SDS011;7114;51.100;13.998;2022-10-24T12:47:16;12.57;;;4.13;;
14076;SDS011;7114;51.100;13.998;2022-10-24T12:49:58;15.90;;;4.47;;
14076;SDS011;7114;51.100;13.998;2022-10-24T12:53:14;29.30;;;5.82;;
14076;SDS011;7114;51.100;13.998;2022-10-24T12:58:38;21.15;;;5.20;;
14076;SDS011;7114;51.100;13.998;2022-10-24T13:01:08;23.73;;;5.47;;
14076;SDS011;7114;51.100;13.998;2022-10-24T13:03:48;20.50;;;5.78;;
14076;SDS011;7114;51.100;13.998;2022-10-24T13:06:24;19.85;;;4.38;;
14076;SDS011;7114;51.100;13.998;2022-10-24T13:08:57;16.70;;;7.00;;
14076;SDS011;7114;51.100;13.998;2022-10-24T13:11:35;12.30;;;4.75;;
14076;SDS011;7114;51.100;13.998;2022-10-24T13:16:57;16.67;;;5.30;;
14076;SDS011;7114;51.100;13.998;2022-10-24T13:19:27;14.63;;;5.22;;
14076;SDS011;7114;51.100;13.998;2022-10-24T13:21:55;13.53;;;5.23;;
14076;SDS011;7114;51.100;13.998;2022-10-24T13:24:28;14.63;;;5.28;;
14076;SDS011;7114;51.100;13.998;2022-10-24T13:29:59;16.58;;;5.60;;
14076;SDS011;7114;51.100;13.998;2022-10-24T13:32:30;17.95;;;5.50;;
14076;SDS011;7114;51.100;13.998;2022-10-24T13:34:59;17.00;;;5.07;;
14076;SDS011;7114;51.100;13.998;2022-10-24T13:37:28;13.52;;;4.25;;
14076;SDS011;7114;51.100;13.998;2022-10-24T13:40:02;13.52;;;4.95;;
14076;SDS011;7114;51.100;13.998;2022-10-24T13:42:34;14.77;;;5.25;;
14076;SDS011;7114;51.100;13.998;2022-10-24T13:45:03;16.00;;;4.47;;
14076;SDS011;7114;51.100;13.998;2022-10-24T13:47:33;16.07;;;4.83;;
14076;SDS011;7114;51.100;13.998;2022-10-24T13:50:03;16.10;;;4.75;;
14076;SDS011;7114;51.100;13.998;2022-10-24T13:52:34;12.63;;;4.25;;
14076;SDS011;7114;51.100;13.998;2022-10-24T13:55:11;12.35;;;4.32;;
14076;SDS011;7114;51.100;13.998;2022-10-24T13:57:49;12.57;;;4.30;;
14076;SDS011;7114;51.100;13.998;2022-10-24T14:00:19;14.40;;;4.37;;
14076;SDS011;7114;51.100;13.998;2022-10-24T14:02:48;12.38;;;3.65;;
14076;SDS011;7114;51.100;13.998;2022-10-24T14:05:19;9.05;;;2.83;;
14076;SDS011;7114;51.100;13.998;2022-10-24T14:07:51;12.90;;;3.10;;
14076;SDS011;7114;51.100;13.998;2022-10-24T14:10:20;13.27;;;5.15;;
14076;SDS011;7114;51.100;13.998;2022-10-24T14:12:47;10.13;;;3.60;;
14076;SDS011;7114;51.100;13.998;2022-10-24T14:15:18;12.77;;;5.00;;
14076;SDS011;7114;51.100;13.998;2022-10-24T14:17:55;12.63;;;4.43;;
14076;SDS011;7114;51.100;13.998;2022-10-24T14:20:24;11.68;;;4.68;;
14076;SDS011;7114;51.100;13.998;2022-10-24T14:22:53;15.43;;;5.68;;
14076;SDS011;7114;51.100;13.998;2022-10-24T16:25:19;14.32;;;5.38;;
14076;SDS011;7114;51.100;13.998;2022-10-24T16:27:46;12.82;;;4.47;;
14076;SDS011;7114;51.100;13.998;2022-10-24T16:30:13;12.65;;;4.43;;
14076;SDS011;7114;51.100;13.998;2022-10-24T16:32:39;13.57;;;4.40;;
14076;SDS011;7114;51.100;13.998;2022-10-24T16:35:06;25.45;;;10.50;;
14076;SDS011;7114;51.100;13.998;2022-10-24T16:37:32;16.83;;;7.10;;
14076;SDS011;7114;51.100;13.998;2022-10-24T16:39:59;16.38;;;7.25;;
14076;SDS011;7114;51.100;13.998;2022-10-24T16:42:26;15.75;;;6.32;;
14076;SDS011;7114;51.100;13.998;2022-10-24T16:44:53;17.77;;;5.77;;
14076;SDS011;7114;51.100;13.998;2022-10-24T16:47:19;12.95;;;5.68;;
14076;SDS011;7114;51.100;13.998;2022-10-24T16:49:45;13.15;;;5.00;;
14076;SDS011;7114;51.100;13.998;2022-10-24T16:52:12;9.32;;;3.42;;
14076;SDS011;7114;51.100;13.998;2022-10-24T16:54:38;8.40;;;2.85;;
14076;SDS011;7114;51.100;13.998;2022-10-24T16:57:05;7.70;;;2.60;;
14076;SDS011;7114;51.100;13.998;2022-10-24T16:59:32;7.95;;;2.42;;
14076;SDS011;7114;51.100;13.998;2022-10-24T17:01:59;6.95;;;2.05;;
14076;SDS011;7114;51.100;13.998;2022-10-24T17:04:25;8.10;;;2.03;;
14076;SDS011;7114;51.100;13.998;2022-10-24T17:06:51;8.23;;;2.47;;
14076;SDS011;7114;51.100;13.998;2022-10-24T17:09:18;7.13;;;2.30;;
14076;SDS011;7114;51.100;13.998;2022-10-24T17:11:44;9.32;;;3.17;;
14076;SDS011;7114;51.100;13.998;2022-10-24T17:14:10;8.68;;;2.90;;